user_mobilelogo

Nordholz:

METAR:

2018/04/26 20:20 ETMN 262020Z 25010KT 9999 FEW022 08/04 Q1014 BLU+

TAF:

2018/04/26 17:51 TAF TAF ETMN 261644Z 2617/2702 27020G30KT 9999 NSW FEW013 SCT020 BECMG 2618/2620 23008KT 9999 NSW FEW020

Wind EDXN:

26.04. 19:30z 260/10G17kt
26.04. 19:40z 260/10G16kt
26.04. 19:50z 250/10G16kt
26.04. 20:00z 250/11G14kt
26.04. 20:10z 240/11kt
26.04. 20:20z 240/08G15kt
26.04. 20:30z 240/06G11kt
26.04. 20:40z 230/07G13kt
26.04. 20:50z 220/07kt
26.04. 21:00z 220/06G09kt

Bremen:

METAR:

2018/04/26 20:20 EDDW 262020Z 22006KT CAVOK 07/04 Q1015 NOSIG

TAF:

2018/04/26 18:34 TAF EDDW 261700Z 2618/2718 27014G24KT 9999 SCT025 BECMG 2618/2620 20007KT BECMG 2716/2718 08006KT

Hamburg:

METAR:

2018/04/26 20:20 EDDH 262020Z 21006KT 9999 FEW045 06/04 Q1014 NOSIG

TAF:

2018/04/26 18:34 TAF EDDH 261700Z 2618/2724 27010KT 9999 SCT025 BECMG 2618/2620 21008KT BECMG 2716/2718 07004KT

Hannover:

METAR:

2018/04/26 20:20 EDDV 262020Z 23004KT 200V260 9999 FEW027 BKN054 08/05 Q1016 NOSIG

TAF:

2018/04/26 18:34 TAF EDDV 261700Z 2618/2718 27006KT 9999 SCT025 PROB30 TEMPO 2618/2620 27015G25KT SHRA BKN020CB BECMG 2618/2620 21007KT BECMG 2715/2717 13006KT

 

Wikipedia Artikel: METAR - TAF

Daten von Aviation Weather Center der NOAA, es kann keine Garantie für Aktualität und Richtigkeit der Daten übernommen werden.

Die Nutzung dieser Daten zur Flugplanung ist nicht zulässig!